sensor_id;sensor_type;location;lat;lon;timestamp;temperature;humidity
19330;DHT22;9799;48.214;16.388;2022-08-21T00:03:05;19.90;99.90
19330;DHT22;9799;48.214;16.388;2022-08-21T00:06:26;19.90;99.90
19330;DHT22;9799;48.214;16.388;2022-08-21T00:09:47;19.90;99.90
19330;DHT22;9799;48.214;16.388;2022-08-21T00:13:09;20.00;99.90
19330;DHT22;9799;48.214;16.388;2022-08-21T00:16:30;19.90;99.90
19330;DHT22;9799;48.214;16.388;2022-08-21T00:19:53;20.00;99.90
19330;DHT22;9799;48.214;16.388;2022-08-21T00:23:14;20.00;99.90
19330;DHT22;9799;48.214;16.388;2022-08-21T00:26:36;20.00;99.90
19330;DHT22;9799;48.214;16.388;2022-08-21T00:29:57;19.80;99.90
19330;DHT22;9799;48.214;16.388;2022-08-21T00:33:18;19.90;99.90
19330;DHT22;9799;48.214;16.388;2022-08-21T00:36:41;19.90;99.90
19330;DHT22;9799;48.214;16.388;2022-08-21T00:40:04;19.90;99.90
19330;DHT22;9799;48.214;16.388;2022-08-21T00:43:30;19.90;99.90
19330;DHT22;9799;48.214;16.388;2022-08-21T00:46:51;19.90;99.90
19330;DHT22;9799;48.214;16.388;2022-08-21T00:50:13;19.90;99.90
19330;DHT22;9799;48.214;16.388;2022-08-21T00:53:38;19.90;99.90
19330;DHT22;9799;48.214;16.388;2022-08-21T00:57:07;19.90;99.90
19330;DHT22;9799;48.214;16.388;2022-08-21T01:00:34;19.80;99.90
19330;DHT22;9799;48.214;16.388;2022-08-21T01:03:55;19.70;99.90
19330;DHT22;9799;48.214;16.388;2022-08-21T01:07:16;19.70;99.90
19330;DHT22;9799;48.214;16.388;2022-08-21T01:10:39;19.80;99.90
19330;DHT22;9799;48.214;16.388;2022-08-21T01:14:01;19.90;99.90
19330;DHT22;9799;48.214;16.388;2022-08-21T01:17:22;19.90;99.90
19330;DHT22;9799;48.214;16.388;2022-08-21T01:20:56;19.90;99.90
19330;DHT22;9799;48.214;16.388;2022-08-21T01:24:17;19.90;99.90
19330;DHT22;9799;48.214;16.388;2022-08-21T01:27:39;20.00;99.90
19330;DHT22;9799;48.214;16.388;2022-08-21T01:31:01;19.90;99.90
19330;DHT22;9799;48.214;16.388;2022-08-21T01:34:23;20.00;99.90
19330;DHT22;9799;48.214;16.388;2022-08-21T01:37:46;20.10;99.90
19330;DHT22;9799;48.214;16.388;2022-08-21T01:41:08;20.10;99.90
19330;DHT22;9799;48.214;16.388;2022-08-21T01:44:30;20.10;99.90
19330;DHT22;9799;48.214;16.388;2022-08-21T01:47:51;19.90;99.90
19330;DHT22;9799;48.214;16.388;2022-08-21T01:51:12;19.90;99.90
19330;DHT22;9799;48.214;16.388;2022-08-21T01:54:35;19.90;99.90
19330;DHT22;9799;48.214;16.388;2022-08-21T01:57:57;19.90;99.90
19330;DHT22;9799;48.214;16.388;2022-08-21T02:01:20;19.90;99.90
19330;DHT22;9799;48.214;16.388;2022-08-21T02:04:41;19.90;99.90
19330;DHT22;9799;48.214;16.388;2022-08-21T02:08:02;19.80;99.90
19330;DHT22;9799;48.214;16.388;2022-08-21T02:11:25;19.70;99.90
19330;DHT22;9799;48.214;16.388;2022-08-21T02:14:46;19.80;99.90
19330;DHT22;9799;48.214;16.388;2022-08-21T02:18:07;19.70;99.90
19330;DHT22;9799;48.214;16.388;2022-08-21T02:21:28;19.70;99.90
19330;DHT22;9799;48.214;16.388;2022-08-21T02:24:49;19.70;99.90
19330;DHT22;9799;48.214;16.388;2022-08-21T02:28:13;19.70;99.90
19330;DHT22;9799;48.214;16.388;2022-08-21T02:31:35;19.70;99.90
19330;DHT22;9799;48.214;16.388;2022-08-21T02:34:56;19.60;99.90
19330;DHT22;9799;48.214;16.388;2022-08-21T02:38:19;19.60;99.90
19330;DHT22;9799;48.214;16.388;2022-08-21T02:41:41;19.60;99.90
19330;DHT22;9799;48.214;16.388;2022-08-21T02:45:05;19.60;99.90
19330;DHT22;9799;48.214;16.388;2022-08-21T02:48:29;19.60;99.90
19330;DHT22;9799;48.214;16.388;2022-08-21T02:51:50;19.60;99.90
19330;DHT22;9799;48.214;16.388;2022-08-21T02:55:12;19.60;99.90
19330;DHT22;9799;48.214;16.388;2022-08-21T02:58:35;19.70;99.90
19330;DHT22;9799;48.214;16.388;2022-08-21T03:01:59;19.70;99.90
19330;DHT22;9799;48.214;16.388;2022-08-21T03:05:20;19.70;99.90
19330;DHT22;9799;48.214;16.388;2022-08-21T03:08:42;19.70;99.90
19330;DHT22;9799;48.214;16.388;2022-08-21T03:12:05;19.70;99.90
19330;DHT22;9799;48.214;16.388;2022-08-21T03:15:26;19.70;99.90
19330;DHT22;9799;48.214;16.388;2022-08-21T03:18:48;19.60;99.90
19330;DHT22;9799;48.214;16.388;2022-08-21T03:22:09;19.70;99.90
19330;DHT22;9799;48.214;16.388;2022-08-21T03:25:31;19.60;99.90
19330;DHT22;9799;48.214;16.388;2022-08-21T03:28:53;19.60;99.90
19330;DHT22;9799;48.214;16.388;2022-08-21T03:32:14;19.70;99.90
19330;DHT22;9799;48.214;16.388;2022-08-21T03:35:36;19.60;99.90
19330;DHT22;9799;48.214;16.388;2022-08-21T03:38:57;19.70;99.90
19330;DHT22;9799;48.214;16.388;2022-08-21T03:42:19;19.60;99.90
19330;DHT22;9799;48.214;16.388;2022-08-21T03:45:40;19.50;99.90
19330;DHT22;9799;48.214;16.388;2022-08-21T03:49:02;19.70;99.90
19330;DHT22;9799;48.214;16.388;2022-08-21T03:52:24;19.70;99.90
19330;DHT22;9799;48.214;16.388;2022-08-21T03:55:47;19.60;99.90
19330;DHT22;9799;48.214;16.388;2022-08-21T03:59:08;19.60;99.90
19330;DHT22;9799;48.214;16.388;2022-08-21T04:02:30;19.70;99.90
19330;DHT22;9799;48.214;16.388;2022-08-21T04:05:52;19.80;99.90
19330;DHT22;9799;48.214;16.388;2022-08-21T04:09:15;19.70;99.90
19330;DHT22;9799;48.214;16.388;2022-08-21T04:12:36;19.80;99.90
19330;DHT22;9799;48.214;16.388;2022-08-21T04:15:57;19.70;99.90
19330;DHT22;9799;48.214;16.388;2022-08-21T04:19:18;19.80;99.90
19330;DHT22;9799;48.214;16.388;2022-08-21T04:22:40;19.70;99.90
19330;DHT22;9799;48.214;16.388;2022-08-21T04:26:02;19.80;99.90
19330;DHT22;9799;48.214;16.388;2022-08-21T04:29:24;19.70;99.90
19330;DHT22;9799;48.214;16.388;2022-08-21T04:32:46;19.80;99.90
19330;DHT22;9799;48.214;16.388;2022-08-21T04:36:08;19.70;99.90
19330;DHT22;9799;48.214;16.388;2022-08-21T04:39:29;19.60;99.90
19330;DHT22;9799;48.214;16.388;2022-08-21T04:42:54;19.70;99.90
19330;DHT22;9799;48.214;16.388;2022-08-21T04:46:15;19.70;99.90
19330;DHT22;9799;48.214;16.388;2022-08-21T04:49:38;19.70;99.90
19330;DHT22;9799;48.214;16.388;2022-08-21T04:52:59;19.80;99.90
19330;DHT22;9799;48.214;16.388;2022-08-21T04:56:23;19.80;99.90
19330;DHT22;9799;48.214;16.388;2022-08-21T04:59:48;19.80;99.90
19330;DHT22;9799;48.214;16.388;2022-08-21T05:03:12;19.80;99.90
19330;DHT22;9799;48.214;16.388;2022-08-21T05:06:36;19.70;99.90
19330;DHT22;9799;48.214;16.388;2022-08-21T05:09:59;19.80;99.90
19330;DHT22;9799;48.214;16.388;2022-08-21T05:13:21;19.80;99.90
19330;DHT22;9799;48.214;16.388;2022-08-21T05:16:43;19.90;99.90
19330;DHT22;9799;48.214;16.388;2022-08-21T05:20:08;19.80;99.90
19330;DHT22;9799;48.214;16.388;2022-08-21T05:23:29;19.90;99.90
19330;DHT22;9799;48.214;16.388;2022-08-21T05:26:50;19.90;99.90
19330;DHT22;9799;48.214;16.388;2022-08-21T05:30:12;19.90;99.90
19330;DHT22;9799;48.214;16.388;2022-08-21T05:33:35;20.10;99.90
19330;DHT22;9799;48.214;16.388;2022-08-21T05:36:56;20.10;99.90
19330;DHT22;9799;48.214;16.388;2022-08-21T05:40:17;20.10;99.90
19330;DHT22;9799;48.214;16.388;2022-08-21T05:43:38;20.20;99.90
19330;DHT22;9799;48.214;16.388;2022-08-21T05:47:03;20.20;99.90
19330;DHT22;9799;48.214;16.388;2022-08-21T05:50:26;20.20;99.90
19330;DHT22;9799;48.214;16.388;2022-08-21T05:53:47;20.30;99.90
19330;DHT22;9799;48.214;16.388;2022-08-21T05:57:08;20.30;99.90
19330;DHT22;9799;48.214;16.388;2022-08-21T06:00:30;20.30;99.90
19330;DHT22;9799;48.214;16.388;2022-08-21T06:03:52;20.40;99.90
19330;DHT22;9799;48.214;16.388;2022-08-21T06:07:14;20.40;99.90
19330;DHT22;9799;48.214;16.388;2022-08-21T06:10:35;20.40;99.90
19330;DHT22;9799;48.214;16.388;2022-08-21T06:13:57;20.40;99.90
19330;DHT22;9799;48.214;16.388;2022-08-21T06:17:19;20.30;99.90
19330;DHT22;9799;48.214;16.388;2022-08-21T06:20:40;20.40;99.90
19330;DHT22;9799;48.214;16.388;2022-08-21T06:24:04;20.40;99.90
19330;DHT22;9799;48.214;16.388;2022-08-21T06:27:26;20.50;99.90
19330;DHT22;9799;48.214;16.388;2022-08-21T06:30:50;20.50;99.90
19330;DHT22;9799;48.214;16.388;2022-08-21T06:34:11;20.60;99.90
19330;DHT22;9799;48.214;16.388;2022-08-21T06:37:33;20.60;99.90
19330;DHT22;9799;48.214;16.388;2022-08-21T06:40:55;20.60;99.90
19330;DHT22;9799;48.214;16.388;2022-08-21T06:44:17;20.60;99.90
19330;DHT22;9799;48.214;16.388;2022-08-21T06:47:38;20.70;99.90
19330;DHT22;9799;48.214;16.388;2022-08-21T06:51:00;20.60;99.90
19330;DHT22;9799;48.214;16.388;2022-08-21T06:54:22;20.70;99.90
19330;DHT22;9799;48.214;16.388;2022-08-21T06:57:44;20.60;99.90
19330;DHT22;9799;48.214;16.388;2022-08-21T07:01:05;20.60;99.90
19330;DHT22;9799;48.214;16.388;2022-08-21T07:04:27;20.60;99.90
19330;DHT22;9799;48.214;16.388;2022-08-21T07:07:48;20.60;99.90
19330;DHT22;9799;48.214;16.388;2022-08-21T07:11:12;20.60;99.90
19330;DHT22;9799;48.214;16.388;2022-08-21T07:14:36;20.60;99.90
19330;DHT22;9799;48.214;16.388;2022-08-21T07:17:57;20.70;99.90
19330;DHT22;9799;48.214;16.388;2022-08-21T07:21:18;20.80;99.90
19330;DHT22;9799;48.214;16.388;2022-08-21T07:24:40;20.90;99.90
19330;DHT22;9799;48.214;16.388;2022-08-21T07:28:01;20.80;99.90
19330;DHT22;9799;48.214;16.388;2022-08-21T07:31:25;20.80;99.90
19330;DHT22;9799;48.214;16.388;2022-08-21T07:34:46;20.80;99.90
19330;DHT22;9799;48.214;16.388;2022-08-21T07:38:07;20.80;99.90
19330;DHT22;9799;48.214;16.388;2022-08-21T07:41:29;20.70;99.90
19330;DHT22;9799;48.214;16.388;2022-08-21T07:44:51;20.70;99.90
19330;DHT22;9799;48.214;16.388;2022-08-21T07:48:14;20.80;99.90
19330;DHT22;9799;48.214;16.388;2022-08-21T07:51:35;20.70;99.90
19330;DHT22;9799;48.214;16.388;2022-08-21T07:54:56;20.70;99.90
19330;DHT22;9799;48.214;16.388;2022-08-21T07:58:18;20.60;99.90
19330;DHT22;9799;48.214;16.388;2022-08-21T08:01:39;20.70;99.90
19330;DHT22;9799;48.214;16.388;2022-08-21T08:05:04;20.60;99.90
19330;DHT22;9799;48.214;16.388;2022-08-21T08:08:25;20.60;99.90
19330;DHT22;9799;48.214;16.388;2022-08-21T08:11:47;20.60;99.90
19330;DHT22;9799;48.214;16.388;2022-08-21T08:15:12;20.70;99.90
19330;DHT22;9799;48.214;16.388;2022-08-21T08:18:33;20.70;99.90
19330;DHT22;9799;48.214;16.388;2022-08-21T08:21:55;20.50;99.90
19330;DHT22;9799;48.214;16.388;2022-08-21T08:25:19;20.40;99.90
19330;DHT22;9799;48.214;16.388;2022-08-21T08:28:40;20.30;99.90
19330;DHT22;9799;48.214;16.388;2022-08-21T08:32:02;20.40;99.90
19330;DHT22;9799;48.214;16.388;2022-08-21T08:35:23;20.50;99.90
19330;DHT22;9799;48.214;16.388;2022-08-21T08:38:47;20.50;99.90
19330;DHT22;9799;48.214;16.388;2022-08-21T08:42:12;20.40;99.90
19330;DHT22;9799;48.214;16.388;2022-08-21T08:45:37;20.60;99.90
19330;DHT22;9799;48.214;16.388;2022-08-21T08:49:02;20.80;99.90
19330;DHT22;9799;48.214;16.388;2022-08-21T08:52:28;21.00;99.90
19330;DHT22;9799;48.214;16.388;2022-08-21T08:55:52;21.00;99.90
19330;DHT22;9799;48.214;16.388;2022-08-21T08:59:17;21.10;99.90
19330;DHT22;9799;48.214;16.388;2022-08-21T09:02:39;21.30;99.90
19330;DHT22;9799;48.214;16.388;2022-08-21T09:06:06;21.30;99.90
19330;DHT22;9799;48.214;16.388;2022-08-21T09:09:38;21.40;99.90
19330;DHT22;9799;48.214;16.388;2022-08-21T09:13:10;21.40;99.90
19330;DHT22;9799;48.214;16.388;2022-08-21T09:16:40;21.40;99.90
19330;DHT22;9799;48.214;16.388;2022-08-21T09:20:18;21.40;99.90
19330;DHT22;9799;48.214;16.388;2022-08-21T09:23:49;21.20;99.90
19330;DHT22;9799;48.214;16.388;2022-08-21T09:27:16;21.00;99.90
19330;DHT22;9799;48.214;16.388;2022-08-21T09:30:40;20.80;99.90
19330;DHT22;9799;48.214;16.388;2022-08-21T09:34:04;20.70;99.90
19330;DHT22;9799;48.214;16.388;2022-08-21T09:37:26;20.80;99.90
19330;DHT22;9799;48.214;16.388;2022-08-21T09:40:56;20.90;99.90
19330;DHT22;9799;48.214;16.388;2022-08-21T09:44:25;21.10;99.90
19330;DHT22;9799;48.214;16.388;2022-08-21T09:47:48;21.20;99.90
19330;DHT22;9799;48.214;16.388;2022-08-21T09:51:12;21.20;99.90
19330;DHT22;9799;48.214;16.388;2022-08-21T09:54:36;21.30;99.90
19330;DHT22;9799;48.214;16.388;2022-08-21T09:57:59;21.50;99.90
19330;DHT22;9799;48.214;16.388;2022-08-21T10:01:21;21.60;99.90
19330;DHT22;9799;48.214;16.388;2022-08-21T10:04:49;21.80;99.90
19330;DHT22;9799;48.214;16.388;2022-08-21T10:08:18;21.80;99.90
19330;DHT22;9799;48.214;16.388;2022-08-21T10:11:40;21.60;99.90
19330;DHT22;9799;48.214;16.388;2022-08-21T10:15:10;21.60;99.90
19330;DHT22;9799;48.214;16.388;2022-08-21T10:18:38;21.60;99.90
19330;DHT22;9799;48.214;16.388;2022-08-21T10:22:14;21.60;99.90
19330;DHT22;9799;48.214;16.388;2022-08-21T10:25:41;21.40;99.90
19330;DHT22;9799;48.214;16.388;2022-08-21T10:29:12;21.10;99.90
19330;DHT22;9799;48.214;16.388;2022-08-21T10:33:00;21.00;99.90
19330;DHT22;9799;48.214;16.388;2022-08-21T10:36:29;20.90;99.90
19330;DHT22;9799;48.214;16.388;2022-08-21T10:40:06;20.90;99.90
19330;DHT22;9799;48.214;16.388;2022-08-21T10:43:35;20.80;99.90
19330;DHT22;9799;48.214;16.388;2022-08-21T10:47:05;20.70;99.90
19330;DHT22;9799;48.214;16.388;2022-08-21T10:50:30;20.70;99.90
19330;DHT22;9799;48.214;16.388;2022-08-21T10:53:59;20.60;99.90
19330;DHT22;9799;48.214;16.388;2022-08-21T10:57:29;20.50;99.90
19330;DHT22;9799;48.214;16.388;2022-08-21T11:00:57;20.50;99.90
19330;DHT22;9799;48.214;16.388;2022-08-21T11:04:23;20.60;99.90
19330;DHT22;9799;48.214;16.388;2022-08-21T11:07:48;20.50;99.90
19330;DHT22;9799;48.214;16.388;2022-08-21T11:11:16;20.40;99.90
19330;DHT22;9799;48.214;16.388;2022-08-21T11:14:47;20.50;99.90
19330;DHT22;9799;48.214;16.388;2022-08-21T11:18:17;20.70;99.90
19330;DHT22;9799;48.214;16.388;2022-08-21T11:21:45;21.00;99.90
19330;DHT22;9799;48.214;16.388;2022-08-21T11:25:13;21.10;99.90
19330;DHT22;9799;48.214;16.388;2022-08-21T11:28:43;21.10;99.90
19330;DHT22;9799;48.214;16.388;2022-08-21T11:32:42;21.30;99.90
19330;DHT22;9799;48.214;16.388;2022-08-21T11:36:13;21.40;99.90
19330;DHT22;9799;48.214;16.388;2022-08-21T11:39:43;21.40;99.90
19330;DHT22;9799;48.214;16.388;2022-08-21T11:43:12;21.40;99.90
19330;DHT22;9799;48.214;16.388;2022-08-21T11:46:51;21.30;99.90
19330;DHT22;9799;48.214;16.388;2022-08-21T11:50:18;21.40;99.90
19330;DHT22;9799;48.214;16.388;2022-08-21T11:53:42;21.40;99.90
19330;DHT22;9799;48.214;16.388;2022-08-21T11:57:16;21.30;99.90
19330;DHT22;9799;48.214;16.388;2022-08-21T12:00:42;21.20;99.90
19330;DHT22;9799;48.214;16.388;2022-08-21T12:04:18;21.20;99.90
19330;DHT22;9799;48.214;16.388;2022-08-21T12:07:45;21.20;99.90
19330;DHT22;9799;48.214;16.388;2022-08-21T12:11:08;21.30;99.90
19330;DHT22;9799;48.214;16.388;2022-08-21T12:14:37;21.40;99.90
19330;DHT22;9799;48.214;16.388;2022-08-21T12:18:00;21.40;99.90
19330;DHT22;9799;48.214;16.388;2022-08-21T12:21:24;21.30;99.90
19330;DHT22;9799;48.214;16.388;2022-08-21T12:24:49;21.30;99.90
19330;DHT22;9799;48.214;16.388;2022-08-21T12:28:14;21.30;99.90
19330;DHT22;9799;48.214;16.388;2022-08-21T12:31:46;21.20;99.90
19330;DHT22;9799;48.214;16.388;2022-08-21T12:35:14;21.00;99.90
19330;DHT22;9799;48.214;16.388;2022-08-21T12:38:44;21.00;99.90
19330;DHT22;9799;48.214;16.388;2022-08-21T12:42:16;20.90;99.90
19330;DHT22;9799;48.214;16.388;2022-08-21T12:45:42;20.80;99.90
19330;DHT22;9799;48.214;16.388;2022-08-21T12:49:12;20.80;99.90
19330;DHT22;9799;48.214;16.388;2022-08-21T12:52:39;20.90;99.90
19330;DHT22;9799;48.214;16.388;2022-08-21T12:56:02;20.80;99.90
19330;DHT22;9799;48.214;16.388;2022-08-21T12:59:26;20.80;99.90
19330;DHT22;9799;48.214;16.388;2022-08-21T13:02:49;20.80;99.90
19330;DHT22;9799;48.214;16.388;2022-08-21T13:06:15;20.80;99.90
19330;DHT22;9799;48.214;16.388;2022-08-21T13:09:43;20.90;99.90
19330;DHT22;9799;48.214;16.388;2022-08-21T13:13:09;21.00;99.90
19330;DHT22;9799;48.214;16.388;2022-08-21T13:16:34;20.90;99.90
19330;DHT22;9799;48.214;16.388;2022-08-21T13:19:58;20.90;99.90
19330;DHT22;9799;48.214;16.388;2022-08-21T13:23:23;20.90;99.90
19330;DHT22;9799;48.214;16.388;2022-08-21T13:26:45;20.90;99.90
19330;DHT22;9799;48.214;16.388;2022-08-21T13:30:10;20.90;99.90
19330;DHT22;9799;48.214;16.388;2022-08-21T13:33:33;20.90;99.90
19330;DHT22;9799;48.214;16.388;2022-08-21T13:36:57;21.00;99.90
19330;DHT22;9799;48.214;16.388;2022-08-21T13:40:24;21.00;99.90
19330;DHT22;9799;48.214;16.388;2022-08-21T13:43:49;21.10;99.90
19330;DHT22;9799;48.214;16.388;2022-08-21T13:47:12;21.00;99.90
19330;DHT22;9799;48.214;16.388;2022-08-21T13:50:38;21.10;99.90
19330;DHT22;9799;48.214;16.388;2022-08-21T13:54:00;21.10;99.90
19330;DHT22;9799;48.214;16.388;2022-08-21T13:57:26;21.10;99.90
19330;DHT22;9799;48.214;16.388;2022-08-21T14:00:49;21.10;99.90
19330;DHT22;9799;48.214;16.388;2022-08-21T14:04:18;21.20;99.90
19330;DHT22;9799;48.214;16.388;2022-08-21T14:07:43;21.30;99.90
19330;DHT22;9799;48.214;16.388;2022-08-21T14:11:05;21.30;99.90
19330;DHT22;9799;48.214;16.388;2022-08-21T14:14:33;21.20;99.90
19330;DHT22;9799;48.214;16.388;2022-08-21T14:18:07;21.30;99.90
19330;DHT22;9799;48.214;16.388;2022-08-21T14:21:32;21.40;99.90
19330;DHT22;9799;48.214;16.388;2022-08-21T14:25:01;21.40;99.90
19330;DHT22;9799;48.214;16.388;2022-08-21T14:28:26;21.40;99.90
19330;DHT22;9799;48.214;16.388;2022-08-21T14:31:50;21.30;99.90
19330;DHT22;9799;48.214;16.388;2022-08-21T14:35:11;21.40;99.90
19330;DHT22;9799;48.214;16.388;2022-08-21T14:38:35;21.50;99.90
19330;DHT22;9799;48.214;16.388;2022-08-21T14:41:59;21.50;99.90
19330;DHT22;9799;48.214;16.388;2022-08-21T14:45:25;21.60;99.90
19330;DHT22;9799;48.214;16.388;2022-08-21T14:48:47;21.50;99.90
19330;DHT22;9799;48.214;16.388;2022-08-21T14:52:09;21.60;99.90
19330;DHT22;9799;48.214;16.388;2022-08-21T14:55:31;21.60;99.90
19330;DHT22;9799;48.214;16.388;2022-08-21T14:59:15;21.50;99.90
19330;DHT22;9799;48.214;16.388;2022-08-21T15:02:36;21.40;99.90
19330;DHT22;9799;48.214;16.388;2022-08-21T15:05:58;21.50;99.90
19330;DHT22;9799;48.214;16.388;2022-08-21T15:09:19;21.50;99.90
19330;DHT22;9799;48.214;16.388;2022-08-21T15:12:40;21.50;99.90
19330;DHT22;9799;48.214;16.388;2022-08-21T15:16:03;21.40;99.90
19330;DHT22;9799;48.214;16.388;2022-08-21T15:19:25;21.30;99.90
19330;DHT22;9799;48.214;16.388;2022-08-21T15:22:47;21.40;99.90
19330;DHT22;9799;48.214;16.388;2022-08-21T15:26:08;21.40;99.90
19330;DHT22;9799;48.214;16.388;2022-08-21T15:29:30;21.40;99.90
19330;DHT22;9799;48.214;16.388;2022-08-21T15:32:53;21.40;99.90
19330;DHT22;9799;48.214;16.388;2022-08-21T15:36:14;21.40;99.90
19330;DHT22;9799;48.214;16.388;2022-08-21T15:39:35;21.50;99.90
19330;DHT22;9799;48.214;16.388;2022-08-21T15:42:59;21.40;99.90
19330;DHT22;9799;48.214;16.388;2022-08-21T15:46:21;21.50;99.90
19330;DHT22;9799;48.214;16.388;2022-08-21T15:49:43;21.50;99.90
19330;DHT22;9799;48.214;16.388;2022-08-21T15:53:05;21.60;99.90
19330;DHT22;9799;48.214;16.388;2022-08-21T15:56:32;21.60;99.90
19330;DHT22;9799;48.214;16.388;2022-08-21T15:59:57;21.50;99.90
19330;DHT22;9799;48.214;16.388;2022-08-21T16:03:19;21.40;99.90
19330;DHT22;9799;48.214;16.388;2022-08-21T16:06:44;21.40;99.90
19330;DHT22;9799;48.214;16.388;2022-08-21T16:10:06;21.50;99.90
19330;DHT22;9799;48.214;16.388;2022-08-21T16:13:35;21.50;99.90
19330;DHT22;9799;48.214;16.388;2022-08-21T16:16:57;21.40;99.90
19330;DHT22;9799;48.214;16.388;2022-08-21T16:20:21;21.50;99.90
19330;DHT22;9799;48.214;16.388;2022-08-21T16:23:45;21.40;99.90
19330;DHT22;9799;48.214;16.388;2022-08-21T16:27:06;21.40;99.90
19330;DHT22;9799;48.214;16.388;2022-08-21T16:30:28;21.40;99.90
19330;DHT22;9799;48.214;16.388;2022-08-21T16:33:51;21.40;99.90
19330;DHT22;9799;48.214;16.388;2022-08-21T16:37:13;21.40;99.90
19330;DHT22;9799;48.214;16.388;2022-08-21T16:40:37;21.40;99.90
19330;DHT22;9799;48.214;16.388;2022-08-21T16:43:59;21.40;99.90
19330;DHT22;9799;48.214;16.388;2022-08-21T16:47:21;21.40;99.90
19330;DHT22;9799;48.214;16.388;2022-08-21T16:50:42;21.40;99.90
19330;DHT22;9799;48.214;16.388;2022-08-21T16:54:03;21.40;99.90
19330;DHT22;9799;48.214;16.388;2022-08-21T16:57:26;21.40;99.90
19330;DHT22;9799;48.214;16.388;2022-08-21T17:00:47;21.40;99.90
19330;DHT22;9799;48.214;16.388;2022-08-21T17:04:09;21.40;99.90
19330;DHT22;9799;48.214;16.388;2022-08-21T17:07:30;21.40;99.90
19330;DHT22;9799;48.214;16.388;2022-08-21T17:10:52;21.40;99.90
19330;DHT22;9799;48.214;16.388;2022-08-21T17:14:19;21.40;99.90
19330;DHT22;9799;48.214;16.388;2022-08-21T17:17:41;21.40;99.90
19330;DHT22;9799;48.214;16.388;2022-08-21T17:21:03;21.40;99.90
19330;DHT22;9799;48.214;16.388;2022-08-21T17:24:24;21.40;99.90
19330;DHT22;9799;48.214;16.388;2022-08-21T17:27:46;21.40;99.90
19330;DHT22;9799;48.214;16.388;2022-08-21T17:31:11;21.40;99.90
19330;DHT22;9799;48.214;16.388;2022-08-21T17:34:33;21.50;99.90
19330;DHT22;9799;48.214;16.388;2022-08-21T17:37:54;21.50;99.90
19330;DHT22;9799;48.214;16.388;2022-08-21T17:41:15;21.50;99.90
19330;DHT22;9799;48.214;16.388;2022-08-21T17:44:37;21.40;99.90
19330;DHT22;9799;48.214;16.388;2022-08-21T17:48:00;21.40;99.90
19330;DHT22;9799;48.214;16.388;2022-08-21T17:51:22;21.50;99.90
19330;DHT22;9799;48.214;16.388;2022-08-21T17:54:43;21.50;99.90
19330;DHT22;9799;48.214;16.388;2022-08-21T17:58:04;21.50;99.90
19330;DHT22;9799;48.214;16.388;2022-08-21T18:01:32;21.50;99.90
19330;DHT22;9799;48.214;16.388;2022-08-21T18:04:54;21.50;99.90
19330;DHT22;9799;48.214;16.388;2022-08-21T18:08:16;21.50;99.90
19330;DHT22;9799;48.214;16.388;2022-08-21T18:11:39;21.50;99.90
19330;DHT22;9799;48.214;16.388;2022-08-21T18:15:01;21.50;99.90
19330;DHT22;9799;48.214;16.388;2022-08-21T18:18:23;21.40;99.90
19330;DHT22;9799;48.214;16.388;2022-08-21T18:21:46;21.40;99.90
19330;DHT22;9799;48.214;16.388;2022-08-21T18:25:08;21.50;99.90
19330;DHT22;9799;48.214;16.388;2022-08-21T18:28:29;21.40;99.90
19330;DHT22;9799;48.214;16.388;2022-08-21T18:31:51;21.40;99.90
19330;DHT22;9799;48.214;16.388;2022-08-21T18:35:14;21.40;99.90
19330;DHT22;9799;48.214;16.388;2022-08-21T18:38:36;21.40;99.90
19330;DHT22;9799;48.214;16.388;2022-08-21T18:41:58;21.40;99.90
19330;DHT22;9799;48.214;16.388;2022-08-21T18:45:20;21.40;99.90
19330;DHT22;9799;48.214;16.388;2022-08-21T18:48:41;21.40;99.90
19330;DHT22;9799;48.214;16.388;2022-08-21T18:52:03;21.50;99.90
19330;DHT22;9799;48.214;16.388;2022-08-21T18:55:27;21.40;99.90
19330;DHT22;9799;48.214;16.388;2022-08-21T18:58:48;21.30;99.90
19330;DHT22;9799;48.214;16.388;2022-08-21T19:02:09;21.30;99.90
19330;DHT22;9799;48.214;16.388;2022-08-21T19:05:31;21.20;99.90
19330;DHT22;9799;48.214;16.388;2022-08-21T19:08:52;21.20;99.90
19330;DHT22;9799;48.214;16.388;2022-08-21T19:12:19;21.20;99.90
19330;DHT22;9799;48.214;16.388;2022-08-21T19:15:43;21.20;99.90
19330;DHT22;9799;48.214;16.388;2022-08-21T19:19:06;21.10;99.90
19330;DHT22;9799;48.214;16.388;2022-08-21T19:22:28;21.10;99.90
19330;DHT22;9799;48.214;16.388;2022-08-21T19:25:52;21.00;99.90
19330;DHT22;9799;48.214;16.388;2022-08-21T19:29:18;21.00;99.90
19330;DHT22;9799;48.214;16.388;2022-08-21T19:32:43;21.10;99.90
19330;DHT22;9799;48.214;16.388;2022-08-21T19:36:06;21.10;99.90
19330;DHT22;9799;48.214;16.388;2022-08-21T19:39:28;21.10;99.90
19330;DHT22;9799;48.214;16.388;2022-08-21T19:42:51;21.00;99.90
19330;DHT22;9799;48.214;16.388;2022-08-21T19:46:19;21.00;99.90
19330;DHT22;9799;48.214;16.388;2022-08-21T19:49:45;21.10;99.90
19330;DHT22;9799;48.214;16.388;2022-08-21T19:53:06;21.10;99.90
19330;DHT22;9799;48.214;16.388;2022-08-21T19:56:29;21.10;99.90
19330;DHT22;9799;48.214;16.388;2022-08-21T19:59:51;21.10;99.90
19330;DHT22;9799;48.214;16.388;2022-08-21T20:03:13;21.10;99.90
19330;DHT22;9799;48.214;16.388;2022-08-21T20:06:35;21.10;99.90
19330;DHT22;9799;48.214;16.388;2022-08-21T20:09:57;21.10;99.90
19330;DHT22;9799;48.214;16.388;2022-08-21T20:13:18;21.00;99.90
19330;DHT22;9799;48.214;16.388;2022-08-21T20:16:41;20.90;99.90
19330;DHT22;9799;48.214;16.388;2022-08-21T20:20:05;20.90;99.90
19330;DHT22;9799;48.214;16.388;2022-08-21T20:23:26;20.70;99.90
19330;DHT22;9799;48.214;16.388;2022-08-21T20:26:48;20.60;99.90
19330;DHT22;9799;48.214;16.388;2022-08-21T20:30:10;20.50;99.90
19330;DHT22;9799;48.214;16.388;2022-08-21T20:33:31;20.30;99.90
19330;DHT22;9799;48.214;16.388;2022-08-21T20:36:54;20.40;99.90
19330;DHT22;9799;48.214;16.388;2022-08-21T20:40:16;20.40;99.90
19330;DHT22;9799;48.214;16.388;2022-08-21T20:43:38;20.00;99.90
19330;DHT22;9799;48.214;16.388;2022-08-21T20:47:00;19.90;99.90
19330;DHT22;9799;48.214;16.388;2022-08-21T20:50:25;19.90;99.90
19330;DHT22;9799;48.214;16.388;2022-08-21T20:53:53;19.80;99.90
19330;DHT22;9799;48.214;16.388;2022-08-21T20:57:21;19.60;99.90
19330;DHT22;9799;48.214;16.388;2022-08-21T21:00:45;19.50;99.90
19330;DHT22;9799;48.214;16.388;2022-08-21T21:04:12;19.60;99.90
19330;DHT22;9799;48.214;16.388;2022-08-21T21:07:49;19.50;99.90
19330;DHT22;9799;48.214;16.388;2022-08-21T21:11:17;19.40;99.90
19330;DHT22;9799;48.214;16.388;2022-08-21T21:14:43;19.40;99.90
19330;DHT22;9799;48.214;16.388;2022-08-21T21:18:08;19.30;99.90
19330;DHT22;9799;48.214;16.388;2022-08-21T21:21:33;19.40;99.90
19330;DHT22;9799;48.214;16.388;2022-08-21T21:24:59;19.30;99.90
19330;DHT22;9799;48.214;16.388;2022-08-21T21:28:32;19.30;99.90